Time;durP1;ratioP1;P1;durP2;ratioP2;P2;SDS_P1;SDS_P2;PMS_P1;PMS_P2;Temp;Humidity;BMP_temperature;BMP_pressure;BME280_temperature;BME280_humidity;BME280_pressure;Samples;Min_cycle;Max_cycle;Signal;HPM_P1;HPM_P2
2022/10/28 00:00:23;;;;;;;7.10;4.93;;;;;;;16.58;86.22;101623.81;5107731;28;20048;-66
2022/10/28 00:02:50;;;;;;;13.95;5.20;;;;;;;16.67;85.78;101625.88;5106754;27;20495;-66
2022/10/28 00:05:17;;;;;;;8.40;5.60;;;;;;;16.72;85.50;101628.22;5110335;27;20051;-66
2022/10/28 00:07:43;;;;;;;12.52;5.15;;;;;;;17.11;84.19;101630.97;5108132;27;20063;-66
2022/10/28 00:10:10;;;;;;;9.82;5.82;;;;;;;16.71;85.54;101624.72;5107076;27;20477;-65
2022/10/28 00:12:37;;;;;;;7.57;5.05;;;;;;;16.89;84.40;101622.69;5109026;27;20044;-65
2022/10/28 00:15:04;;;;;;;9.25;5.28;;;;;;;16.91;84.30;101631.41;5107642;27;20051;-65
2022/10/28 00:17:31;;;;;;;11.48;5.57;;;;;;;16.51;86.56;101628.63;5107157;27;20035;-65
2022/10/28 00:19:59;;;;;;;9.00;5.38;;;;;;;16.49;86.64;101621.69;5108509;27;20061;-65
2022/10/28 00:22:25;;;;;;;13.93;6.88;;;;;;;16.31;87.86;101622.84;5107790;27;20511;-65
2022/10/28 00:24:51;;;;;;;10.43;5.40;;;;;;;16.21;88.48;101614.63;5107576;28;20491;-65
2022/10/28 00:27:18;;;;;;;10.43;6.18;;;;;;;16.13;89.23;101611.59;5108403;28;20167;-65
2022/10/28 00:29:44;;;;;;;9.57;5.55;;;;;;;16.25;88.42;101599.41;5107545;28;20055;-65
2022/10/28 00:32:11;;;;;;;10.40;6.07;;;;;;;16.24;88.45;101609.13;5091726;28;20040;-65
2022/10/28 00:34:37;;;;;;;8.63;5.13;;;;;;;16.55;87.19;101608.91;5097188;28;20051;-66
2022/10/28 00:37:05;;;;;;;13.27;6.20;;;;;;;16.37;87.66;101609.25;5106501;27;20044;-66
2022/10/28 00:39:32;;;;;;;9.98;5.43;;;;;;;16.23;88.64;101604.78;5107900;28;20050;-66
2022/10/28 00:42:02;;;;;;;11.95;5.60;;;;;;;16.14;88.77;101602.72;5106956;27;20046;-65
2022/10/28 00:44:51;;;;;;;10.88;5.57;;;;;;;16.17;88.73;101599.00;5107415;28;20411;-65
2022/10/28 00:47:27;;;;;;;13.43;5.88;;;;;;;16.38;87.94;101601.19;5108413;27;20043;-65
2022/10/28 00:49:58;;;;;;;13.80;6.18;;;;;;;16.34;88.09;101590.88;5107324;27;20043;-65
2022/10/28 00:52:29;;;;;;;13.70;6.50;;;;;;;16.15;88.86;101603.56;5107416;27;20043;-65
2022/10/28 00:54:59;;;;;;;;;;;;;;;16.40;87.62;101599.31;5106737;27;20608;-65
2022/10/28 00:57:30;;;;;;;12.70;6.57;;;;;;;16.46;87.32;101598.06;5106543;27;20015;-66
2022/10/28 00:59:59;;;;;;;8.65;6.10;;;;;;;16.79;86.01;101611.00;5105769;28;20510;-66
2022/10/28 01:02:25;;;;;;;12.40;6.32;;;;;;;16.20;88.87;101604.97;5107387;28;20070;-66
2022/10/28 01:04:52;;;;;;;10.63;6.25;;;;;;;15.86;90.86;101602.66;5105414;27;20052;-66
2022/10/28 01:07:19;;;;;;;9.23;5.75;;;;;;;15.90;91.10;101606.81;5106921;27;20068;-66
2022/10/28 01:09:47;;;;;;;15.45;6.57;;;;;;;16.07;89.97;101604.84;5107389;28;20671;-66
2022/10/28 01:12:23;;;;;;;21.23;7.00;;;;;;;16.47;87.89;101599.78;5106383;27;20777;-66
2022/10/28 01:15:00;;;;;;;17.67;6.47;;;;;;;16.62;86.74;101595.34;5106224;27;20461;-66
2022/10/28 01:17:37;;;;;;;12.60;6.63;;;;;;;16.63;87.20;101603.16;5108099;28;20043;-66
2022/10/28 01:20:33;;;;;;;13.85;6.72;;;;;;;16.32;88.52;101598.94;5107470;28;20043;-66
2022/10/28 01:23:06;;;;;;;13.20;6.25;;;;;;;16.01;90.35;101596.44;5108312;28;20044;-66
2022/10/28 01:25:55;;;;;;;11.98;6.45;;;;;;;16.22;88.93;101592.47;5107905;28;20035;-66
2022/10/28 01:28:45;;;;;;;11.02;6.20;;;;;;;16.26;88.10;101578.13;5098671;27;20090;-66
2022/10/28 01:31:28;;;;;;;15.70;6.90;;;;;;;16.24;88.56;101581.81;5065979;28;20721;-66
2022/10/28 01:34:03;;;;;;;12.25;6.90;;;;;;;15.77;91.98;101579.44;5086376;28;20040;-66
2022/10/28 01:36:36;;;;;;;9.20;6.18;;;;;;;15.81;91.64;101580.94;5086163;28;20048;-66
2022/10/28 01:39:14;;;;;;;11.95;5.85;;;;;;;15.82;91.72;101578.19;5093012;28;20511;-66
2022/10/28 01:41:50;;;;;;;12.23;6.05;;;;;;;15.97;90.46;101579.06;5106306;28;20051;-66
2022/10/28 01:44:26;;;;;;;14.38;6.78;;;;;;;16.06;90.32;101575.88;5114772;27;20498;-66
2022/10/28 01:47:01;;;;;;;12.45;6.43;;;;;;;16.00;90.52;101579.72;5105667;28;20056;-66
2022/10/28 01:49:38;;;;;;;12.27;6.03;;;;;;;15.80;91.81;101587.16;5105374;28;20387;-66
2022/10/28 01:52:09;;;;;;;20.63;7.00;;;;;;;15.65;93.00;101585.44;5106408;27;20065;-66
2022/10/28 01:54:38;;;;;;;12.07;6.63;;;;;;;15.78;91.71;101587.25;5103537;28;20423;-66
2022/10/28 01:57:05;;;;;;;10.20;6.32;;;;;;;15.62;92.89;101585.63;5109321;27;20084;-66
2022/10/28 01:59:34;;;;;;;11.15;6.53;;;;;;;15.81;92.06;101589.72;5105747;28;20494;-66
2022/10/28 02:02:02;;;;;;;11.48;6.07;;;;;;;15.53;93.13;101590.50;5104883;27;20051;-66
2022/10/28 02:04:28;;;;;;;13.00;6.53;;;;;;;16.21;89.08;101582.00;5107864;28;20048;-66
2022/10/28 02:06:56;;;;;;;11.65;5.97;;;;;;;16.03;90.30;101584.00;5105759;28;20051;-66
2022/10/28 02:09:32;;;;;;;12.90;6.78;;;;;;;16.21;89.27;101576.72;5104943;28;20039;-66
2022/10/28 02:12:19;;;;;;;12.27;5.55;;;;;;;16.41;87.32;101577.16;5105954;28;20055;-66
2022/10/28 02:15:02;;;;;;;10.77;6.10;;;;;;;16.24;87.61;101574.72;5104549;28;20057;-66
2022/10/28 02:17:42;;;;;;;17.92;6.65;;;;;;;15.83;90.50;101574.63;5106608;28;20796;-66
2022/10/28 02:20:17;;;;;;;10.63;6.80;;;;;;;16.18;88.88;101575.13;5106640;28;20051;-66
2022/10/28 02:22:49;;;;;;;9.00;6.15;;;;;;;16.04;89.55;101585.69;5106231;28;20051;-66
2022/10/28 02:25:20;;;;;;;16.73;6.88;;;;;;;16.28;88.20;101589.47;5105806;28;20096;-66
2022/10/28 02:27:55;;;;;;;11.15;5.97;;;;;;;16.55;86.85;101581.63;5104830;28;20058;-66
2022/10/28 02:30:23;;;;;;;8.77;5.97;;;;;;;16.95;84.14;101593.19;5084979;28;20044;-66
2022/10/28 02:32:55;;;;;;;15.57;5.63;;;;;;;17.06;81.28;101589.84;5086705;28;20044;-66
2022/10/28 02:35:29;;;;;;;11.52;6.85;;;;;;;17.27;80.11;101585.78;5086194;28;20043;-66
2022/10/28 02:37:59;;;;;;;10.32;6.07;;;;;;;17.21;79.66;101587.03;5088458;28;24665;-66
2022/10/28 02:40:28;;;;;;;15.75;5.45;;;;;;;17.15;79.31;101586.56;5103896;28;20518;-66
2022/10/28 02:42:59;;;;;;;9.50;5.82;;;;;;;17.18;78.68;101587.25;5104958;28;20048;-66
2022/10/28 02:45:31;;;;;;;9.65;5.05;;;;;;;16.97;77.35;101588.63;5106113;28;20044;-66
2022/10/28 02:48:03;;;;;;;13.18;5.80;;;;;;;16.69;78.39;101586.91;5105965;28;20066;-66
2022/10/28 02:50:34;;;;;;;9.90;5.43;;;;;;;16.43;79.96;101588.53;5105824;27;20121;-66
2022/10/28 02:53:03;;;;;;;13.55;6.03;;;;;;;16.58;79.51;101585.88;5105691;27;20048;-66
2022/10/28 02:55:35;;;;;;;10.35;5.80;;;;;;;16.53;78.60;101592.28;5087214;28;20519;-66
2022/10/28 02:58:02;;;;;;;10.88;6.03;;;;;;;16.41;79.08;101585.09;5101304;28;20044;-66
2022/10/28 03:00:28;;;;;;;11.63;6.20;;;;;;;16.35;79.60;101595.22;5104793;27;20044;-66
2022/10/28 03:02:55;;;;;;;9.18;6.65;;;;;;;16.32;80.06;101577.75;5105232;27;20051;-66
2022/10/28 03:05:23;;;;;;;7.40;5.65;;;;;;;15.68;82.62;101577.31;5107672;27;20051;-66
2022/10/28 03:07:49;;;;;;;14.50;6.50;;;;;;;15.45;85.50;101587.41;5108579;27;20048;-66
2022/10/28 03:10:16;;;;;;;16.58;6.97;;;;;;;15.59;85.63;101589.31;5108791;27;20050;-66
2022/10/28 03:12:42;;;;;;;11.40;7.05;;;;;;;15.77;84.30;101585.56;5110464;27;20039;-66
2022/10/28 03:15:09;;;;;;;21.73;6.63;;;;;;;15.96;82.96;101583.50;5107929;28;20056;-66
2022/10/28 03:17:36;;;;;;;14.57;6.32;;;;;;;15.97;81.95;101590.50;5108460;27;20458;-66
2022/10/28 03:20:02;;;;;;;11.35;6.07;;;;;;;15.88;81.50;101577.00;5109224;28;20051;-66
2022/10/28 03:22:30;;;;;;;10.02;6.10;;;;;;;15.56;82.69;101571.81;5108311;28;20044;-66
2022/10/28 03:24:56;;;;;;;14.55;6.78;;;;;;;14.96;87.06;101572.72;5108343;28;20047;-66
2022/10/28 03:27:23;;;;;;;17.40;7.45;;;;;;;14.59;92.41;101579.19;5108388;28;20514;-66
2022/10/28 03:29:49;;;;;;;14.23;7.50;;;;;;;15.13;89.09;101577.88;5108362;28;20067;-65
2022/10/28 03:32:16;;;;;;;13.10;6.68;;;;;;;14.88;88.69;101573.13;5109118;28;20047;-65
2022/10/28 03:34:42;;;;;;;16.85;7.43;;;;;;;14.70;91.39;101570.69;5109316;28;20051;-65
2022/10/28 03:37:09;;;;;;;18.77;7.82;;;;;;;15.01;88.84;101554.78;5105115;28;20062;-65
2022/10/28 03:39:36;;;;;;;14.15;8.30;;;;;;;15.10;89.99;101562.19;5108055;28;20050;-65
2022/10/28 03:42:03;;;;;;;18.08;7.78;;;;;;;15.37;87.66;101567.69;5108511;28;20445;-65
2022/10/28 03:44:29;;;;;;;17.83;7.78;;;;;;;15.51;86.88;101559.81;5109216;28;20046;-65
2022/10/28 03:46:56;;;;;;;10.35;6.18;;;;;;;15.52;86.12;101572.94;5107599;27;20052;-65
2022/10/28 03:49:22;;;;;;;17.88;7.78;;;;;;;15.49;87.72;101580.19;5110127;27;20047;-65
2022/10/28 03:51:49;;;;;;;14.75;8.00;;;;;;;15.44;88.99;101583.09;5107558;28;20050;-65
2022/10/28 03:54:15;;;;;;;13.35;7.82;;;;;;;15.64;88.10;101559.94;5108576;28;20469;-66
2022/10/28 03:56:43;;;;;;;12.63;6.88;;;;;;;15.75;86.58;101562.78;5108868;28;20055;-66
2022/10/28 03:59:10;;;;;;;14.52;6.95;;;;;;;15.93;83.73;101557.22;5107573;28;20552;-65
2022/10/28 04:01:37;;;;;;;13.95;6.93;;;;;;;15.66;85.50;101558.91;5106032;27;20039;-65
2022/10/28 04:04:03;;;;;;;12.35;6.88;;;;;;;15.89;84.90;101546.97;5109038;28;20097;-65
2022/10/28 04:06:30;;;;;;;14.00;7.15;;;;;;;15.67;85.34;101557.97;5107463;28;20512;-65
2022/10/28 04:08:56;;;;;;;13.38;7.07;;;;;;;15.88;85.21;101554.03;5108606;28;20055;-66
2022/10/28 04:11:23;;;;;;;14.98;7.30;;;;;;;15.93;84.39;101551.94;5107781;27;20043;-66
2022/10/28 04:13:50;;;;;;;10.52;6.78;;;;;;;15.65;86.30;101557.22;5108082;28;20055;-66
2022/10/28 04:16:17;;;;;;;14.18;6.35;;;;;;;15.75;86.00;101554.84;5106897;28;20039;-66
2022/10/28 04:18:43;;;;;;;13.00;7.05;;;;;;;15.67;87.37;101555.31;5106010;28;20445;-65
2022/10/28 04:21:10;;;;;;;9.27;6.80;;;;;;;15.65;87.74;101559.00;5107097;27;20047;-65
2022/10/28 04:23:36;;;;;;;12.85;6.97;;;;;;;15.56;88.11;101560.38;5108954;28;20047;-66
2022/10/28 04:26:03;;;;;;;17.33;7.05;;;;;;;15.58;87.42;101559.38;5107179;28;20128;-66
2022/10/28 04:28:29;;;;;;;16.17;7.80;;;;;;;15.64;88.79;101552.84;5107851;27;20047;-65
2022/10/28 04:30:57;;;;;;;9.50;7.15;;;;;;;15.75;87.69;101561.00;5108267;27;20052;-65
2022/10/28 04:33:23;;;;;;;17.00;7.65;;;;;;;15.85;88.42;101548.91;5106177;27;20093;-65
2022/10/28 04:35:50;;;;;;;11.65;7.55;;;;;;;15.71;89.66;101551.53;5106541;27;20070;-65
2022/10/28 04:38:16;;;;;;;25.98;7.22;;;;;;;15.78;88.72;101547.59;5108268;28;20055;-65
2022/10/28 04:40:42;;;;;;;11.93;7.47;;;;;;;15.90;88.29;101540.69;5105605;27;20554;-65
2022/10/28 04:43:10;;;;;;;15.98;7.20;;;;;;;15.81;88.99;101544.78;5105883;28;20047;-65
2022/10/28 04:45:37;;;;;;;14.07;7.18;;;;;;;15.55;90.39;101546.34;5108100;27;20047;-65
2022/10/28 04:48:06;;;;;;;11.27;6.85;;;;;;;15.40;91.28;101538.44;5107361;28;20043;-65
2022/10/28 04:50:33;;;;;;;13.90;6.63;;;;;;;15.53;91.29;101532.34;5105519;28;20035;-65
2022/10/28 04:52:59;;;;;;;11.02;6.57;;;;;;;15.43;92.02;101531.19;5107097;28;20043;-65
2022/10/28 04:55:26;;;;;;;12.93;6.75;;;;;;;15.87;89.13;101528.53;5104298;28;20477;-65
2022/10/28 04:57:54;;;;;;;12.50;6.40;;;;;;;15.58;90.56;101526.81;5108147;27;20104;-65
2022/10/28 05:00:21;;;;;;;12.90;6.45;;;;;;;15.36;91.59;101518.41;5107553;28;20127;-66
2022/10/28 05:02:47;;;;;;;21.13;5.97;;;;;;;15.73;89.81;101517.94;5107814;27;20070;-66
2022/10/28 05:05:15;;;;;;;12.20;6.55;;;;;;;16.23;86.97;101517.44;5106954;28;20043;-65
2022/10/28 05:07:42;;;;;;;15.65;6.18;;;;;;;16.35;86.48;101515.84;5107176;28;20054;-65
2022/10/28 05:10:10;;;;;;;16.52;6.75;;;;;;;15.97;88.23;101524.38;5105558;27;20066;-66
2022/10/28 05:12:37;;;;;;;10.20;6.10;;;;;;;16.12;87.71;101538.44;5105597;27;20415;-66
2022/10/28 05:15:04;;;;;;;13.75;6.47;;;;;;;16.03;87.40;101547.81;5107608;28;20092;-66
2022/10/28 05:17:31;;;;;;;11.50;5.90;;;;;;;15.84;88.29;101547.22;5107063;27;20036;-66
2022/10/28 05:19:57;;;;;;;12.50;6.22;;;;;;;15.93;88.19;101544.00;5106438;28;20047;-66
2022/10/28 05:22:25;;;;;;;18.35;6.50;;;;;;;16.22;86.86;101541.38;5107987;27;20044;-66
2022/10/28 05:24:52;;;;;;;13.57;5.88;;;;;;;16.28;86.44;101541.84;5104982;28;20044;-66
2022/10/28 05:27:18;;;;;;;10.02;5.95;;;;;;;16.64;84.17;101538.69;5105767;27;20042;-66
2022/10/28 05:29:44;;;;;;;10.60;5.82;;;;;;;16.40;85.44;101530.50;5106527;28;20395;-66
2022/10/28 05:32:11;;;;;;;11.10;6.22;;;;;;;16.15;86.20;101530.31;5105786;28;20035;-66
2022/10/28 05:34:37;;;;;;;11.70;6.18;;;;;;;16.39;85.26;101531.44;5104876;27;20483;-66
2022/10/28 05:37:04;;;;;;;11.43;5.70;;;;;;;16.63;84.10;101520.25;5107087;28;20116;-66
2022/10/28 05:39:31;;;;;;;14.95;6.28;;;;;;;16.92;82.40;101511.25;5104303;28;20457;-66
2022/10/28 05:41:58;;;;;;;14.95;7.10;;;;;;;16.37;84.56;101525.38;5099094;28;20453;-66
2022/10/28 05:44:24;;;;;;;11.45;5.60;;;;;;;17.02;81.63;101522.94;5106934;28;20051;-66
2022/10/28 05:46:52;;;;;;;14.52;6.03;;;;;;;16.21;85.54;101515.84;5106656;28;20048;-66
2022/10/28 05:49:19;;;;;;;9.18;5.53;;;;;;;16.58;83.73;101511.75;5105936;28;20054;-66
2022/10/28 05:51:46;;;;;;;13.63;6.15;;;;;;;16.74;82.73;101517.78;5106033;28;20079;-66
2022/10/28 05:54:12;;;;;;;10.77;5.93;;;;;;;16.54;83.67;101525.16;5106013;28;20043;-66
2022/10/28 05:56:40;;;;;;;12.90;5.88;;;;;;;16.37;84.56;101520.06;5106686;28;20040;-66
2022/10/28 05:59:06;;;;;;;12.90;6.32;;;;;;;16.23;85.85;101516.59;5106364;28;20047;-66
2022/10/28 06:01:33;;;;;;;10.48;5.55;;;;;;;16.37;84.76;101514.78;5104918;28;20104;-66
2022/10/28 06:03:59;;;;;;;10.85;6.93;;;;;;;16.15;85.59;101517.06;5104980;28;20047;-66
2022/10/28 06:06:27;;;;;;;13.77;5.68;;;;;;;15.87;87.42;101506.50;5106717;28;20047;-66
2022/10/28 06:08:54;;;;;;;11.68;5.50;;;;;;;15.58;89.17;101521.50;5105621;28;20047;-66
2022/10/28 06:11:20;;;;;;;14.45;5.85;;;;;;;15.63;89.73;101508.84;5104928;27;20047;-66
2022/10/28 06:13:48;;;;;;;11.90;6.07;;;;;;;15.69;89.68;101510.28;5105481;28;20051;-66
2022/10/28 06:16:15;;;;;;;10.52;5.57;;;;;;;15.73;89.47;101523.22;5104796;28;20043;-66
2022/10/28 06:18:41;;;;;;;13.95;6.53;;;;;;;16.02;87.53;101513.50;5105923;28;20414;-66
2022/10/28 06:21:08;;;;;;;17.45;6.38;;;;;;;16.48;84.78;101512.28;5105475;27;20484;-66
2022/10/28 06:23:34;;;;;;;9.05;5.90;;;;;;;16.38;85.19;101500.59;5103785;28;20051;-66
2022/10/28 06:26:02;;;;;;;7.60;5.47;;;;;;;16.64;84.19;101498.97;5106352;28;20052;-66
2022/10/28 06:28:29;;;;;;;11.57;5.88;;;;;;;16.68;83.81;101496.97;5106300;28;20054;-66
2022/10/28 06:31:01;;;;;;;9.93;5.53;;;;;;;16.89;82.35;101496.41;5106084;28;20055;-65
2022/10/28 06:33:27;;;;;;;11.63;6.07;;;;;;;17.12;81.04;101497.53;5105008;27;20043;-64
2022/10/28 06:35:56;;;;;;;13.07;5.95;;;;;;;16.63;83.93;101505.19;5106395;27;20049;-64
2022/10/28 06:38:23;;;;;;;14.65;6.93;;;;;;;16.92;82.35;101519.22;5105051;28;20097;-65
2022/10/28 06:40:49;;;;;;;15.27;6.47;;;;;;;17.11;81.27;101516.19;5103841;28;20043;-64
2022/10/28 06:43:16;;;;;;;14.05;5.85;;;;;;;17.16;80.83;101504.31;5110633;28;20507;-64
2022/10/28 06:45:44;;;;;;;12.18;5.75;;;;;;;17.42;79.98;101508.72;5110174;28;20048;-64
2022/10/28 06:48:12;;;;;;;10.85;5.38;;;;;;;17.35;80.53;101512.75;5108454;27;20303;-65
2022/10/28 06:50:38;;;;;;;10.20;5.50;;;;;;;17.23;81.56;101520.66;5110047;28;20039;-65
2022/10/28 06:53:05;;;;;;;13.35;5.78;;;;;;;17.24;81.09;101509.97;5109294;28;20043;-65
2022/10/28 06:55:31;;;;;;;9.23;5.35;;;;;;;16.77;82.75;101517.56;5105559;27;20093;-66
2022/10/28 06:57:59;;;;;;;12.98;5.80;;;;;;;16.84;82.22;101508.25;5109668;28;20051;-65
2022/10/28 07:00:26;;;;;;;11.75;4.72;;;;;;;17.03;81.80;101514.06;5109255;27;20067;-65
2022/10/28 07:02:53;;;;;;;11.07;5.35;;;;;;;16.77;83.27;101507.81;5109581;27;20470;-65
2022/10/28 07:05:21;;;;;;;9.65;5.20;;;;;;;17.19;81.40;101513.88;5110410;27;20043;-65
2022/10/28 07:07:48;;;;;;;11.00;4.90;;;;;;;17.14;81.66;101516.00;5108958;28;20046;-65
2022/10/28 07:10:14;;;;;;;6.38;4.50;;;;;;;17.33;80.68;101517.28;5108557;28;20054;-65
2022/10/28 07:12:41;;;;;;;9.95;5.40;;;;;;;17.10;81.26;101509.19;5110764;27;20054;-65
2022/10/28 07:15:09;;;;;;;11.70;5.18;;;;;;;16.54;84.57;101522.50;5109856;27;20043;-65
2022/10/28 07:17:35;;;;;;;12.32;4.88;;;;;;;16.61;84.94;101517.69;5107991;28;20040;-65
2022/10/28 07:20:02;;;;;;;10.13;5.25;;;;;;;16.76;84.25;101519.34;5109971;28;20052;-65
2022/10/28 07:22:30;;;;;;;13.23;5.72;;;;;;;16.64;84.45;101517.50;5108589;27;20040;-65
2022/10/28 07:24:56;;;;;;;10.80;5.20;;;;;;;16.75;85.12;101512.34;5108587;27;20460;-66
2022/10/28 07:27:22;;;;;;;10.40;5.03;;;;;;;16.46;85.71;101514.22;5110607;28;20043;-66
2022/10/28 07:29:49;;;;;;;19.90;7.18;;;;;;;16.42;86.20;101530.38;5107672;28;20044;-66
2022/10/28 07:32:15;;;;;;;10.73;4.70;;;;;;;16.68;85.51;101518.16;5108178;28;20108;-65
2022/10/28 07:34:42;;;;;;;15.30;5.78;;;;;;;16.72;84.81;101524.94;5109618;27;20051;-65
2022/10/28 07:37:09;;;;;;;10.73;4.78;;;;;;;16.77;86.02;101522.84;5108215;28;20474;-65
2022/10/28 07:39:38;;;;;;;6.13;4.22;;;;;;;16.73;84.79;101518.72;5107738;27;20051;-65
2022/10/28 07:42:04;;;;;;;10.70;4.43;;;;;;;17.24;83.21;101517.91;5106374;27;20047;-65
2022/10/28 07:44:31;;;;;;;14.88;5.30;;;;;;;17.57;81.26;101516.63;5108044;28;20093;-65
2022/10/28 07:46:57;;;;;;;10.55;4.40;;;;;;;17.52;81.43;101523.03;5109313;28;20055;-66
2022/10/28 07:49:24;;;;;;;7.78;4.10;;;;;;;17.41;81.38;101516.75;5108017;28;20048;-66
2022/10/28 07:51:50;;;;;;;16.73;4.50;;;;;;;17.75;80.27;101524.16;5107550;28;20059;-66
2022/10/28 07:54:17;;;;;;;14.35;5.68;;;;;;;17.59;80.73;101515.53;5107185;27;20048;-66
2022/10/28 07:56:45;;;;;;;11.38;4.30;;;;;;;17.08;82.87;101519.88;5108723;27;20050;-66
2022/10/28 07:59:11;;;;;;;7.95;4.07;;;;;;;17.22;82.67;101514.50;5108026;28;20051;-66
2022/10/28 08:01:37;;;;;;;11.20;4.25;;;;;;;17.29;81.79;101512.31;5108553;27;20048;-66
2022/10/28 08:04:04;;;;;;;10.10;4.00;;;;;;;17.33;82.99;101519.94;5107540;28;20048;-66
2022/10/28 08:06:30;;;;;;;11.13;4.88;;;;;;;17.44;81.76;101520.06;5107046;27;20050;-66
2022/10/28 08:08:57;;;;;;;8.88;4.03;;;;;;;17.51;82.52;101515.22;5107439;27;20296;-66
2022/10/28 08:11:24;;;;;;;10.98;4.85;;;;;;;17.75;80.91;101518.00;5107925;28;20044;-66
2022/10/28 08:13:54;;;;;;;13.02;4.55;;;;;;;17.78;80.66;101517.78;5108344;28;20435;-66
2022/10/28 08:16:20;;;;;;;10.68;3.92;;;;;;;18.52;78.81;101514.28;5106356;27;20517;-66
2022/10/28 08:18:47;;;;;;;8.32;4.28;;;;;;;18.82;77.50;101504.06;5108037;28;20063;-66
2022/10/28 08:21:14;;;;;;;7.18;3.83;;;;;;;18.91;75.98;101503.41;5106969;27;20039;-67
2022/10/28 08:23:45;;;;;;;9.68;4.40;;;;;;;19.04;75.16;101504.19;5124240;27;20407;-66
2022/10/28 08:26:12;;;;;;;14.40;5.13;;;;;;;19.23;74.83;101498.31;5124841;27;20047;-66
2022/10/28 08:28:38;;;;;;;17.45;5.38;;;;;;;19.59;73.95;101503.50;5128172;27;20046;-66
2022/10/28 08:31:08;;;;;;;7.22;3.92;;;;;;;19.66;72.55;101502.06;5128938;27;20530;-66
2022/10/28 08:33:35;;;;;;;11.10;4.65;;;;;;;20.09;71.52;101496.06;5123392;27;20039;-67
2022/10/28 08:36:02;;;;;;;9.32;4.57;;;;;;;21.20;68.35;101501.97;5107464;28;20071;-67
2022/10/28 08:38:28;;;;;;;7.15;4.00;;;;;;;21.78;65.94;101497.84;5108235;28;20531;-67
2022/10/28 08:41:02;;;;;;;9.85;4.22;;;;;;;21.39;65.75;101495.94;5108819;28;20101;-67
2022/10/28 08:43:42;;;;;;;9.70;4.00;;;;;;;20.96;66.98;101495.13;5108136;28;20054;-67
2022/10/28 08:46:20;;;;;;;10.75;4.72;;;;;;;20.48;69.12;101495.53;5108261;27;20407;-67
2022/10/28 08:48:46;;;;;;;14.15;4.97;;;;;;;20.33;69.96;101496.78;5101379;28;20047;-67
2022/10/28 08:51:17;;;;;;;10.80;4.30;;;;;;;20.54;70.00;101494.22;5106191;28;20051;-67
2022/10/28 08:53:48;;;;;;;10.75;4.50;;;;;;;20.22;70.10;101484.28;5108008;28;20046;-67
2022/10/28 08:56:18;;;;;;;13.90;4.20;;;;;;;20.28;70.61;101491.84;5108304;28;20040;-67
2022/10/28 08:58:47;;;;;;;10.77;4.20;;;;;;;19.96;71.55;101480.19;5108474;27;20565;-67
2022/10/28 09:01:21;;;;;;;11.98;4.60;;;;;;;19.88;73.45;101488.78;5106622;27;20059;-67
2022/10/28 09:03:50;;;;;;;8.45;4.78;;;;;;;19.34;73.31;101488.56;5095362;28;20047;-67
2022/10/28 09:06:16;;;;;;;10.75;4.72;;;;;;;19.78;73.35;101490.47;5106105;27;20044;-67
2022/10/28 09:08:46;;;;;;;8.65;5.15;;;;;;;19.47;73.58;101491.19;5107738;27;20047;-67
2022/10/28 09:11:36;;;;;;;10.75;4.88;;;;;;;19.12;74.76;101488.50;5106655;28;20082;-67
2022/10/28 09:14:27;;;;;;;15.82;5.10;;;;;;;19.01;75.68;101479.63;5095139;28;20514;-67
2022/10/28 09:17:06;;;;;;;13.80;4.53;;;;;;;19.24;74.62;101481.41;5106671;28;20039;-67
2022/10/28 09:19:43;;;;;;;18.02;5.05;;;;;;;19.45;74.28;101490.44;5106733;28;20051;-67
2022/10/28 09:22:20;;;;;;;8.43;4.43;;;;;;;19.60;74.16;101485.75;5106103;28;20047;-67
2022/10/28 09:24:52;;;;;;;10.52;4.70;;;;;;;19.96;72.24;101482.84;5106693;28;20039;-67
2022/10/28 09:27:29;;;;;;;10.88;4.90;;;;;;;20.34;71.49;101485.16;5106171;27;20100;-67
2022/10/28 09:30:04;;;;;;;6.82;4.25;;;;;;;20.78;68.90;101478.84;5105366;28;20055;-68
2022/10/28 09:32:40;;;;;;;14.93;4.70;;;;;;;21.98;66.13;101485.47;5106889;28;20048;-69
2022/10/28 09:35:13;;;;;;;7.95;4.25;;;;;;;22.63;63.26;101476.06;5106451;27;20043;-67
2022/10/28 09:37:45;;;;;;;10.05;4.22;;;;;;;23.13;61.99;101468.78;5106398;27;20782;-67
2022/10/28 09:40:17;;;;;;;10.95;4.22;;;;;;;23.54;60.81;101481.00;5108100;27;20092;-67
2022/10/28 09:42:48;;;;;;;15.02;3.95;;;;;;;23.48;60.57;101470.84;5107401;27;20724;-67
2022/10/28 09:45:19;;;;;;;7.43;3.90;;;;;;;23.96;59.57;101471.53;5103779;28;20088;-67
2022/10/28 09:47:54;;;;;;;9.20;3.90;;;;;;;24.69;58.39;101465.19;5106671;28;20051;-68
2022/10/28 09:50:23;;;;;;;8.45;3.80;;;;;;;25.42;55.19;101473.06;5106290;28;20040;-68
2022/10/28 09:52:58;;;;;;;10.70;4.20;;;;;;;25.95;54.89;101468.34;5107937;28;20472;-68
2022/10/28 09:55:25;;;;;;;8.48;3.55;;;;;;;25.30;53.95;101469.78;5104873;28;20047;-68
2022/10/28 09:57:51;;;;;;;11.32;3.25;;;;;;;23.92;58.39;101470.13;5105429;28;20047;-68
2022/10/28 10:00:18;;;;;;;9.23;3.50;;;;;;;23.23;60.54;101465.13;5105638;28;20036;-68
2022/10/28 10:02:46;;;;;;;14.48;4.43;;;;;;;22.94;62.17;101458.09;5107231;27;20047;-68
2022/10/28 10:05:16;;;;;;;15.57;4.03;;;;;;;24.00;59.31;101453.31;5104992;28;20039;-68
2022/10/28 10:07:48;;;;;;;9.10;3.75;;;;;;;23.04;61.43;101465.13;5104411;28;20492;-68
2022/10/28 10:10:21;;;;;;;10.82;3.75;;;;;;;23.94;61.58;101457.47;5105675;28;20043;-68
2022/10/28 10:12:49;;;;;;;10.65;3.45;;;;;;;24.87;57.94;101467.09;5106139;28;20473;-68
2022/10/28 10:15:21;;;;;;;8.73;3.28;;;;;;;25.26;55.17;101456.81;5103107;28;20043;-68
2022/10/28 10:17:49;;;;;;;11.07;3.30;;;;;;;25.37;55.27;101460.09;5105779;27;20059;-68
2022/10/28 10:20:20;;;;;;;9.80;3.22;;;;;;;25.23;54.39;101455.31;5104326;27;20506;-68
2022/10/28 10:22:48;;;;;;;7.30;3.00;;;;;;;25.28;55.16;101450.28;5106734;28;20046;-68
2022/10/28 10:25:32;;;;;;;7.57;2.70;;;;;;;25.17;54.51;101456.75;5106831;28;20056;-68
2022/10/28 10:28:01;;;;;;;6.47;3.00;;;;;;;25.30;56.37;101451.00;5106095;28;20055;-68
2022/10/28 10:30:32;;;;;;;8.52;3.00;;;;;;;25.37;54.16;101453.88;5105315;28;20040;-68
2022/10/28 10:33:02;;;;;;;7.72;3.10;;;;;;;24.89;54.99;101459.72;5104314;28;20419;-68
2022/10/28 10:35:31;;;;;;;8.27;2.97;;;;;;;25.33;55.64;101457.88;5105346;28;20411;-68
2022/10/28 10:37:59;;;;;;;11.05;4.22;;;;;;;25.31;54.20;101455.38;5106176;28;20043;-68
2022/10/28 10:40:30;;;;;;;9.27;2.88;;;;;;;24.92;55.18;101460.25;5105367;27;20047;-68
2022/10/28 10:43:19;;;;;;;11.93;4.07;;;;;;;24.58;54.73;101457.38;5105848;27;20122;-68
2022/10/28 10:45:51;;;;;;;11.38;3.40;;;;;;;24.35;56.49;101464.19;5106485;27;20508;-68
2022/10/28 10:48:19;;;;;;;10.27;3.40;;;;;;;24.60;55.34;101451.88;5105614;27;20100;-68
2022/10/28 10:50:48;;;;;;;10.02;3.15;;;;;;;24.69;55.45;101451.78;5105170;28;20048;-68
2022/10/28 10:53:24;;;;;;;9.70;3.63;;;;;;;23.89;57.16;101454.38;5104390;28;20070;-68
2022/10/28 10:55:54;;;;;;;10.70;4.13;;;;;;;24.16;57.51;101446.38;5102862;28;20655;-68
2022/10/28 10:58:23;;;;;;;8.38;3.00;;;;;;;23.91;57.73;101451.56;5104917;28;20079;-68
2022/10/28 11:00:52;;;;;;;9.93;3.97;;;;;;;24.50;56.79;101448.41;5104833;28;20043;-68
2022/10/28 11:03:24;;;;;;;13.23;3.20;;;;;;;24.76;56.86;101443.97;5104589;28;20045;-68
2022/10/28 11:05:52;;;;;;;;;;;;;;;24.38;59.47;101445.13;5106926;27;20048;-68
2022/10/28 11:08:32;;;;;;;13.07;3.28;;;;;;;24.68;57.56;101446.59;5106723;27;19927;-68
2022/10/28 11:11:07;;;;;;;10.57;3.13;;;;;;;24.23;55.87;101449.28;5104677;27;20056;-68
2022/10/28 11:13:35;;;;;;;7.88;3.38;;;;;;;23.95;58.15;101443.06;5106536;27;20394;-68
2022/10/28 11:16:03;;;;;;;6.72;3.00;;;;;;;24.34;57.61;101442.88;5106482;27;20494;-68
2022/10/28 11:18:40;;;;;;;7.03;3.10;;;;;;;23.77;59.03;101440.31;5106100;27;20757;-68
2022/10/28 11:21:14;;;;;;;7.95;3.33;;;;;;;24.37;59.90;101442.56;5105360;28;20036;-68
2022/10/28 11:23:48;;;;;;;10.60;3.67;;;;;;;24.46;57.58;101445.22;5105599;28;20040;-68
2022/10/28 11:26:16;;;;;;;9.88;4.20;;;;;;;24.40;58.01;101432.38;5107190;28;20172;-68
2022/10/28 11:29:00;;;;;;;7.65;3.05;;;;;;;24.67;57.62;101434.16;5108411;27;20048;-68